createdAt,value
2017-09-03T00:00:10.434Z,5.00
2017-09-03T00:02:40.955Z,5.50
2017-09-03T00:05:13.075Z,5.77
2017-09-03T00:07:43.725Z,6.00
2017-09-03T00:10:15.174Z,6.60
2017-09-03T00:12:46.105Z,5.93
2017-09-03T00:15:16.607Z,6.10
2017-09-03T00:17:47.479Z,6.87
2017-09-03T00:20:17.960Z,6.33
2017-09-03T00:22:49.571Z,6.53
2017-09-03T00:25:20.271Z,6.73
2017-09-03T00:27:50.811Z,5.63
2017-09-03T00:30:21.664Z,5.40
2017-09-03T00:32:52.224Z,5.60
2017-09-03T00:35:22.731Z,6.03
2017-09-03T00:37:53.307Z,9.00
2017-09-03T00:40:23.887Z,6.97
2017-09-03T00:42:54.485Z,5.83
2017-09-03T00:45:25.012Z,5.23
2017-09-03T00:47:56.006Z,5.70
2017-09-03T00:50:26.872Z,6.20
2017-09-03T00:52:57.397Z,5.50
2017-09-03T00:55:27.930Z,5.33
2017-09-03T00:57:58.481Z,6.50
2017-09-03T01:00:29.341Z,6.73
2017-09-03T01:03:00.754Z,6.70
2017-09-03T01:05:31.287Z,6.70
2017-09-03T01:08:01.849Z,6.97
2017-09-03T01:10:33.230Z,6.83
2017-09-03T01:13:03.966Z,7.10
2017-09-03T01:15:34.525Z,7.00
2017-09-03T01:18:05.408Z,6.30
2017-09-03T01:20:35.968Z,7.10
2017-09-03T01:23:06.589Z,7.23
2017-09-03T01:25:37.114Z,7.30
2017-09-03T01:28:07.680Z,8.80
2017-09-03T01:30:38.666Z,7.90
2017-09-03T01:33:09.233Z,7.40
2017-09-03T01:35:39.839Z,8.27
2017-09-03T01:38:10.372Z,7.20
2017-09-03T01:40:41.720Z,8.43
2017-09-03T01:43:12.251Z,7.80
2017-09-03T01:45:42.774Z,8.20
2017-09-03T01:48:15.279Z,8.37
2017-09-03T01:50:46.121Z,8.27
2017-09-03T01:53:17.630Z,8.37
2017-09-03T01:55:48.170Z,8.20
2017-09-03T01:58:19.529Z,7.87
2017-09-03T02:00:51.987Z,7.57
2017-09-03T02:03:22.638Z,7.33
2017-09-03T02:05:54.402Z,7.80
2017-09-03T02:08:24.916Z,6.73
2017-09-03T02:10:56.577Z,7.20
2017-09-03T02:13:27.121Z,6.97
2017-09-03T02:15:57.639Z,8.43
2017-09-03T02:18:28.916Z,7.60
2017-09-03T02:21:00.437Z,7.17
2017-09-03T02:23:32.027Z,7.50
2017-09-03T02:26:02.587Z,8.83
2017-09-03T02:28:33.124Z,8.97
2017-09-03T02:31:03.912Z,7.80
2017-09-03T02:33:34.434Z,8.90
2017-09-03T02:36:05.987Z,8.63
2017-09-03T02:38:36.821Z,8.30
2017-09-03T02:41:07.324Z,8.30
2017-09-03T02:43:37.875Z,7.00
2017-09-03T02:46:08.450Z,6.30
2017-09-03T02:48:39.308Z,5.90
2017-09-03T02:51:10.528Z,6.97
2017-09-03T02:53:41.096Z,6.33
2017-09-03T02:56:11.983Z,6.33
2017-09-03T02:58:42.550Z,7.10
2017-09-03T03:01:14.067Z,6.87
2017-09-03T03:03:44.582Z,6.60
2017-09-03T03:06:15.740Z,7.70
2017-09-03T03:08:47.086Z,8.10
2017-09-03T03:11:17.586Z,7.00
2017-09-03T03:13:48.134Z,7.30
2017-09-03T03:16:18.712Z,7.03
2017-09-03T03:18:49.618Z,7.67
2017-09-03T03:21:20.180Z,8.97
2017-09-03T03:23:50.627Z,6.90
2017-09-03T03:26:21.182Z,8.40
2017-09-03T03:31:42.660Z,7.67
2017-09-03T03:34:13.713Z,8.13
2017-09-03T03:36:44.334Z,7.47
2017-09-03T03:39:15.540Z,6.60
2017-09-03T03:41:46.428Z,6.60
2017-09-03T03:44:17.979Z,6.90
2017-09-03T03:46:50.012Z,5.90
2017-09-03T03:49:21.543Z,5.60
2017-09-03T03:51:52.539Z,5.70
2017-09-03T03:54:23.103Z,6.10
2017-09-03T03:56:54.364Z,6.70
2017-09-03T03:59:24.900Z,6.67
2017-09-03T04:01:55.457Z,4.70
2017-09-03T04:04:27.042Z,5.57
2017-09-03T04:06:57.582Z,5.97
2017-09-03T04:09:28.116Z,4.80
2017-09-03T04:11:58.618Z,3.80
2017-09-03T04:14:29.912Z,3.30
2017-09-03T04:17:00.541Z,2.63
2017-09-03T04:19:31.058Z,2.83
2017-09-03T04:22:01.922Z,2.80
2017-09-03T04:24:33.771Z,2.50
2017-09-03T04:27:05.145Z,2.70
2017-09-03T04:29:35.700Z,2.57
2017-09-03T04:32:06.978Z,3.00
2017-09-03T04:34:37.956Z,2.40
2017-09-03T04:37:08.495Z,2.60
2017-09-03T04:39:39.988Z,3.70
2017-09-03T04:42:10.631Z,8.80
2017-09-03T04:44:41.164Z,7.63
2017-09-03T04:47:12.291Z,7.20
2017-09-03T04:49:43.591Z,6.63
2017-09-03T04:52:14.342Z,5.83
2017-09-03T04:54:44.860Z,5.77
2017-09-03T04:57:15.403Z,5.77
2017-09-03T04:59:45.931Z,5.30
2017-09-03T05:02:17.200Z,4.20
2017-09-03T05:04:49.497Z,4.50
2017-09-03T05:07:20.064Z,3.40
2017-09-03T05:09:50.576Z,2.78
2017-09-03T05:12:21.967Z,1.85
2017-09-03T05:14:52.510Z,1.95
2017-09-03T05:17:22.984Z,2.00
2017-09-03T05:19:53.534Z,1.48
2017-09-03T05:22:24.410Z,1.90
2017-09-03T05:24:54.918Z,1.58
2017-09-03T05:27:26.681Z,1.10
2017-09-03T05:29:57.157Z,1.80
2017-09-03T05:32:27.697Z,1.30
2017-09-03T05:34:58.636Z,1.50
2017-09-03T05:37:29.192Z,1.40
2017-09-03T05:40:00.134Z,1.48
2017-09-03T05:42:31.476Z,1.55
2017-09-03T05:45:02.850Z,1.90
2017-09-03T05:47:33.395Z,1.87
2017-09-03T05:50:03.932Z,1.50
2017-09-03T05:52:34.518Z,1.40
2017-09-03T05:55:05.082Z,1.62
2017-09-03T05:57:35.679Z,1.40
2017-09-03T06:00:06.235Z,1.50
2017-09-03T06:02:36.744Z,1.70
2017-09-03T06:05:08.520Z,1.60
2017-09-03T06:07:39.117Z,1.85
2017-09-03T06:10:10.048Z,1.60
2017-09-03T06:12:40.580Z,1.80
2017-09-03T06:15:11.143Z,1.60
2017-09-03T06:17:41.678Z,1.70
2017-09-03T06:20:12.223Z,1.90
2017-09-03T06:22:43.235Z,1.30
2017-09-03T06:41:37.877Z,4.33
2017-09-03T06:44:08.726Z,4.40
2017-09-03T06:53:44.765Z,6.97
2017-09-03T06:56:15.553Z,6.80
2017-09-03T06:58:46.098Z,7.50
2017-09-03T07:01:16.672Z,7.10
2017-09-03T07:03:47.255Z,6.30
2017-09-03T07:06:17.752Z,7.50
2017-09-03T07:08:48.647Z,6.63
2017-09-03T07:11:19.155Z,6.50
2017-09-03T07:13:50.001Z,6.90
2017-09-03T07:16:20.484Z,6.47
2017-09-03T07:18:51.023Z,6.80
2017-09-03T07:21:21.547Z,6.70
2017-09-03T07:23:52.100Z,5.40
2017-09-03T07:26:23.037Z,6.43
2017-09-03T07:28:54.367Z,5.30
2017-09-03T07:31:24.917Z,6.80
2017-09-03T07:33:55.381Z,6.00
2017-09-03T07:36:25.916Z,7.10
2017-09-03T07:38:56.933Z,7.27
2017-09-03T07:41:28.231Z,6.90
2017-09-03T07:43:59.055Z,7.47
2017-09-03T07:46:29.625Z,6.20
2017-09-03T07:49:00.166Z,6.37
2017-09-03T07:51:30.748Z,5.10
2017-09-03T07:54:01.352Z,5.93
2017-09-03T07:56:32.068Z,5.03
2017-09-03T07:59:02.588Z,5.60
2017-09-03T08:01:33.427Z,5.47
2017-09-03T08:04:06.916Z,4.80
2017-09-03T08:06:37.440Z,4.60
2017-09-03T08:09:08.007Z,4.60
2017-09-03T08:11:38.539Z,4.50
2017-09-03T08:14:09.487Z,4.33
2017-09-03T08:16:40.023Z,4.47
2017-09-03T08:19:10.523Z,4.80
2017-09-03T08:21:41.082Z,4.90
2017-09-03T08:24:11.589Z,7.10
2017-09-03T08:26:42.351Z,6.47
2017-09-03T08:29:12.891Z,6.53
2017-09-03T08:31:43.856Z,6.97
2017-09-03T08:34:14.415Z,6.97
2017-09-03T08:36:45.120Z,6.77
2017-09-03T08:39:15.725Z,7.63
2017-09-03T08:41:46.401Z,7.23
2017-09-03T08:44:18.001Z,7.33
2017-09-03T08:46:48.511Z,7.13
2017-09-03T08:49:19.069Z,7.70
2017-09-03T08:51:49.687Z,7.00
2017-09-03T08:54:20.238Z,7.17
2017-09-03T08:56:51.122Z,7.90
2017-09-03T08:59:21.704Z,9.00
2017-09-03T09:01:52.233Z,8.57
2017-09-03T09:04:22.765Z,8.97
2017-09-03T09:06:53.337Z,8.03
2017-09-03T09:09:23.821Z,8.37
2017-09-03T09:11:54.360Z,8.87
2017-09-03T09:14:26.116Z,10.10
2017-09-03T09:16:56.691Z,11.40
2017-09-03T09:19:27.564Z,10.60
2017-09-03T09:21:58.441Z,10.07
2017-09-03T09:24:29.260Z,9.77
2017-09-03T09:27:00.100Z,10.20
2017-09-03T09:29:30.888Z,9.77
2017-09-03T09:32:01.899Z,10.00
2017-09-03T09:34:32.360Z,9.80
2017-09-03T09:37:02.900Z,9.77
2017-09-03T09:39:33.454Z,9.27
2017-09-03T09:42:04.013Z,8.37
2017-09-03T09:44:34.578Z,9.20
2017-09-03T09:47:05.404Z,8.93
2017-09-03T09:49:36.517Z,8.10
2017-09-03T09:52:08.084Z,10.00
2017-09-03T09:54:38.953Z,10.60
2017-09-03T09:57:09.739Z,10.17
2017-09-03T09:59:40.588Z,9.80
2017-09-03T10:02:11.511Z,10.67
2017-09-03T10:04:42.048Z,11.70
2017-09-03T10:07:13.339Z,9.87
2017-09-03T10:09:43.884Z,10.20
2017-09-03T10:12:14.377Z,10.70
2017-09-03T10:14:45.142Z,9.10
2017-09-03T10:17:15.637Z,11.83
2017-09-03T10:19:46.545Z,10.73
2017-09-03T10:22:17.836Z,11.63
2017-09-03T10:24:48.447Z,11.40
2017-09-03T10:27:19.042Z,11.03
2017-09-03T10:29:49.586Z,10.83
2017-09-03T10:32:21.217Z,10.00
2017-09-03T10:34:51.769Z,11.00
2017-09-03T10:37:22.334Z,10.23
2017-09-03T10:39:52.875Z,9.90
2017-09-03T10:42:23.477Z,10.10
2017-09-03T10:44:54.030Z,10.60
2017-09-03T10:47:24.555Z,11.60
2017-09-03T10:49:55.631Z,11.00
2017-09-03T10:52:26.298Z,12.60
2017-09-03T10:54:56.833Z,11.97
2017-09-03T10:57:27.375Z,12.17
2017-09-03T10:59:57.999Z,11.03
2017-09-03T11:02:28.922Z,10.40
2017-09-03T11:05:00.200Z,11.50
2017-09-03T11:07:32.027Z,11.47
2017-09-03T11:10:02.593Z,11.10
2017-09-03T11:12:33.094Z,10.87
2017-09-03T11:15:03.681Z,11.80
2017-09-03T11:17:34.227Z,12.23
2017-09-03T11:20:05.214Z,11.83
2017-09-03T11:22:35.743Z,12.00
2017-09-03T11:25:06.275Z,11.60
2017-09-03T11:27:36.851Z,12.63
2017-09-03T11:30:07.486Z,12.20
2017-09-03T11:32:38.385Z,12.50
2017-09-03T11:35:09.031Z,12.57
2017-09-03T11:37:40.009Z,9.53
2017-09-03T11:40:10.618Z,11.63
2017-09-03T11:42:41.171Z,12.70
2017-09-03T11:45:12.503Z,12.63
2017-09-03T11:47:43.021Z,9.53
2017-09-03T11:50:13.745Z,11.90
2017-09-03T11:52:44.243Z,11.00
2017-09-03T11:55:15.048Z,11.40
2017-09-03T11:57:46.337Z,11.33
2017-09-03T12:00:16.924Z,11.40
2017-09-03T12:02:47.482Z,12.93
2017-09-03T12:05:18.013Z,10.60
2017-09-03T12:07:49.061Z,10.47
2017-09-03T12:10:19.732Z,11.20
2017-09-03T12:12:50.298Z,11.40
2017-09-03T12:15:20.818Z,10.70
2017-09-03T12:17:51.350Z,10.67
2017-09-03T12:20:22.278Z,10.63
2017-09-03T12:22:52.823Z,10.97
2017-09-03T12:25:23.757Z,10.20
2017-09-03T12:27:54.270Z,9.67
2017-09-03T12:30:24.806Z,8.93
2017-09-03T12:32:55.331Z,9.10
2017-09-03T12:35:25.832Z,8.80
2017-09-03T12:37:56.684Z,8.10
2017-09-03T12:40:27.212Z,7.63
2017-09-03T12:42:57.676Z,6.53
2017-09-03T12:45:28.256Z,6.43
2017-09-03T12:47:58.751Z,6.50
2017-09-03T12:50:29.754Z,5.97
2017-09-03T12:53:00.393Z,5.50
2017-09-03T12:55:31.339Z,4.93
2017-09-03T12:58:01.829Z,5.13
2017-09-03T13:00:32.404Z,4.80
2017-09-03T13:03:02.952Z,5.60
2017-09-03T13:05:33.509Z,5.30
2017-09-03T13:08:04.464Z,5.30
2017-09-03T13:10:34.957Z,4.80
2017-09-03T13:13:05.925Z,5.40
2017-09-03T13:15:36.421Z,4.97
2017-09-03T13:18:06.989Z,4.93
2017-09-03T13:20:37.685Z,5.03
2017-09-03T13:23:08.224Z,5.20
2017-09-03T13:25:39.244Z,5.17
2017-09-03T13:28:09.833Z,5.90
2017-09-03T13:30:40.411Z,5.80
2017-09-03T13:33:10.966Z,6.23
2017-09-03T13:35:41.524Z,6.30
2017-09-03T13:38:12.463Z,6.17
2017-09-03T13:40:42.924Z,6.40
2017-09-03T13:43:13.927Z,6.40
2017-09-03T13:45:44.518Z,6.10
2017-09-03T13:48:15.055Z,6.10
2017-09-03T13:50:45.591Z,5.23
2017-09-03T13:53:16.128Z,6.27
2017-09-03T13:55:46.809Z,6.73
2017-09-03T13:58:17.391Z,6.47
2017-09-03T14:00:47.916Z,6.00
2017-09-03T14:03:18.498Z,6.17
2017-09-03T14:05:49.057Z,5.73
2017-09-03T14:08:20.036Z,5.50
2017-09-03T14:10:50.562Z,5.90
2017-09-03T14:13:21.480Z,4.57
2017-09-03T14:15:52.022Z,4.70
2017-09-03T14:18:22.570Z,4.07
2017-09-03T14:20:53.125Z,3.97
2017-09-03T14:23:23.672Z,4.03
2017-09-03T14:25:54.612Z,4.90
2017-09-03T14:28:25.173Z,3.57
2017-09-03T14:30:56.091Z,3.83
2017-09-03T14:33:26.608Z,3.07
2017-09-03T14:35:57.332Z,3.83
2017-09-03T14:38:27.831Z,2.80
2017-09-03T14:40:58.380Z,3.00
2017-09-03T14:43:29.485Z,2.97
2017-09-03T14:45:59.949Z,3.00
2017-09-03T14:48:30.439Z,2.80
2017-09-03T14:51:01.007Z,3.27
2017-09-03T14:53:31.521Z,2.83
2017-09-03T14:56:02.194Z,2.50
2017-09-03T14:58:32.739Z,2.63
2017-09-03T15:01:03.678Z,2.03
2017-09-03T15:03:34.260Z,2.27
2017-09-03T15:06:04.794Z,2.30
2017-09-03T15:08:35.293Z,2.23
2017-09-03T15:11:05.816Z,2.63
2017-09-03T15:13:36.776Z,3.37
2017-09-03T15:16:07.346Z,2.80
2017-09-03T15:18:37.893Z,3.40
2017-09-03T15:21:08.573Z,3.20
2017-09-03T15:23:39.784Z,3.13
2017-09-03T15:26:10.866Z,3.30
2017-09-03T15:28:41.968Z,3.20
2017-09-03T15:31:14.886Z,3.07
2017-09-03T15:33:45.534Z,3.00
2017-09-03T15:36:16.103Z,2.80
2017-09-03T15:38:46.628Z,2.33
2017-09-03T15:41:17.196Z,3.10
2017-09-03T15:43:48.139Z,2.40
2017-09-03T15:46:18.735Z,2.80
2017-09-03T15:48:49.632Z,3.80
2017-09-03T15:51:20.999Z,4.93
2017-09-03T15:53:52.000Z,4.60
2017-09-03T15:56:22.722Z,4.13
2017-09-03T15:58:53.323Z,4.50
2017-09-03T16:01:24.248Z,5.13
2017-09-03T16:06:29.409Z,4.60
2017-09-03T16:08:59.990Z,3.30
2017-09-03T16:11:30.567Z,3.50
2017-09-03T16:14:01.358Z,3.87
2017-09-03T16:16:31.939Z,4.20
2017-09-03T16:19:04.852Z,2.40
2017-09-03T16:21:35.426Z,2.70
2017-09-03T16:24:07.497Z,3.13
2017-09-03T16:26:38.853Z,2.83
2017-09-03T16:29:10.341Z,3.47
2017-09-03T16:31:41.926Z,3.40
2017-09-03T16:34:13.006Z,3.13
2017-09-03T16:36:44.073Z,3.20
2017-09-03T16:39:15.058Z,3.17
2017-09-03T16:41:46.175Z,3.27
2017-09-03T16:44:17.596Z,3.30
2017-09-03T16:46:48.816Z,3.10
2017-09-03T16:49:20.475Z,3.50
2017-09-03T16:51:51.774Z,4.00
2017-09-03T16:54:23.085Z,3.47
2017-09-03T16:56:54.423Z,3.00
2017-09-03T16:59:25.747Z,3.83
2017-09-03T17:01:57.835Z,4.53
2017-09-03T17:04:29.137Z,5.60
2017-09-03T17:07:00.394Z,5.17
2017-09-03T17:09:31.647Z,4.60
2017-09-03T17:12:02.959Z,4.50
2017-09-03T17:14:34.422Z,4.63
2017-09-03T17:17:05.711Z,3.63
2017-09-03T17:19:37.467Z,3.57
2017-09-03T17:22:11.582Z,3.50
2017-09-03T17:24:42.827Z,3.33
2017-09-03T17:27:14.147Z,3.60
2017-09-03T17:29:45.455Z,3.70
2017-09-03T17:32:18.059Z,3.93
2017-09-03T17:34:51.981Z,3.83
2017-09-03T17:37:30.827Z,5.73
2017-09-03T17:40:02.151Z,4.90
2017-09-03T17:42:34.039Z,5.40
2017-09-03T17:45:06.494Z,4.97
2017-09-03T17:47:37.796Z,5.47
2017-09-03T17:50:09.118Z,5.07
2017-09-03T17:52:40.366Z,4.43
2017-09-03T17:55:11.671Z,5.50
2017-09-03T17:57:43.263Z,5.80
2017-09-03T18:00:14.560Z,5.90
2017-09-03T18:02:46.131Z,4.77
2017-09-03T18:05:17.467Z,4.40
2017-09-03T18:07:49.506Z,5.10
2017-09-03T18:10:20.752Z,4.40
2017-09-03T18:12:52.101Z,5.10
2017-09-03T18:15:23.836Z,5.20
2017-09-03T18:17:55.145Z,5.30
2017-09-03T18:20:26.486Z,5.53
2017-09-03T18:22:58.327Z,5.60
2017-09-03T18:25:29.619Z,4.90
2017-09-03T18:28:02.201Z,4.60
2017-09-03T18:30:37.068Z,4.87
2017-09-03T18:33:09.416Z,4.70
2017-09-03T18:35:41.568Z,4.10
2017-09-03T18:38:14.827Z,4.50
2017-09-03T18:40:46.133Z,4.37
2017-09-03T18:43:17.447Z,4.57
2017-09-03T18:45:49.243Z,5.10
2017-09-03T18:48:20.587Z,4.90
2017-09-03T18:50:53.620Z,4.87
2017-09-03T18:53:26.898Z,4.33
2017-09-03T18:55:58.936Z,4.83
2017-09-03T18:58:35.731Z,5.03
2017-09-03T19:01:07.068Z,4.97
2017-09-03T19:03:38.519Z,4.50
2017-09-03T19:06:09.823Z,4.50
2017-09-03T19:08:41.157Z,4.53
2017-09-03T19:11:12.479Z,4.87
2017-09-03T19:13:43.839Z,5.00
2017-09-03T19:16:15.523Z,4.40
2017-09-03T19:18:46.844Z,4.10
2017-09-03T19:21:18.158Z,4.00
2017-09-03T19:23:49.489Z,3.13
2017-09-03T19:26:20.783Z,4.33
2017-09-03T19:28:52.474Z,4.63
2017-09-03T19:31:23.732Z,3.83
2017-09-03T19:33:54.988Z,4.63
2017-09-03T19:36:26.199Z,4.50
2017-09-03T19:38:57.490Z,4.33
2017-09-03T19:41:28.843Z,4.40
2017-09-03T19:43:59.896Z,4.57
2017-09-03T19:46:31.285Z,5.43
2017-09-03T19:49:02.367Z,5.37
2017-09-03T19:51:33.414Z,5.43
2017-09-03T19:54:04.482Z,4.43
2017-09-03T19:56:35.494Z,4.43
2017-09-03T19:59:06.834Z,4.10
2017-09-03T20:01:37.842Z,4.53
2017-09-03T20:04:09.754Z,4.00
2017-09-03T20:06:40.763Z,3.63
2017-09-03T20:09:11.795Z,3.50
2017-09-03T20:11:42.849Z,3.80
2017-09-03T20:14:13.859Z,4.40
2017-09-03T20:16:45.654Z,3.67
2017-09-03T20:19:16.699Z,3.50
2017-09-03T20:21:47.702Z,3.70
2017-09-03T20:24:18.775Z,3.50
2017-09-03T20:26:49.824Z,3.30
2017-09-03T20:29:21.180Z,3.10
2017-09-03T20:31:52.187Z,3.27
2017-09-03T20:34:23.659Z,4.40
2017-09-03T20:36:54.711Z,4.30
2017-09-03T20:39:25.759Z,3.37
2017-09-03T20:41:56.811Z,4.07
2017-09-03T20:44:27.847Z,4.10
2017-09-03T20:46:59.267Z,4.57
2017-09-03T20:49:30.258Z,4.20
2017-09-03T20:52:01.254Z,4.13
2017-09-03T20:54:32.323Z,3.73
2017-09-03T20:57:03.384Z,3.60
2017-09-03T20:59:34.642Z,3.97
2017-09-03T21:02:05.658Z,4.13
2017-09-03T21:04:38.099Z,3.57
2017-09-03T21:07:09.229Z,4.03
2017-09-03T21:09:40.275Z,4.10
2017-09-03T21:12:11.299Z,3.93
2017-09-03T21:14:42.360Z,4.00
2017-09-03T21:17:14.490Z,4.27
2017-09-03T21:19:45.438Z,4.30
2017-09-03T21:22:16.403Z,4.77
2017-09-03T21:24:47.344Z,4.30
2017-09-03T21:27:18.328Z,3.87
2017-09-03T21:29:49.648Z,4.17
2017-09-03T21:32:20.576Z,4.00
2017-09-03T21:34:51.999Z,4.00
2017-09-03T21:37:23.000Z,3.93
2017-09-03T21:39:54.119Z,3.90
2017-09-03T21:42:26.059Z,3.93
2017-09-03T21:44:57.108Z,4.30
2017-09-03T21:47:29.163Z,5.10
2017-09-03T21:50:00.219Z,4.00
2017-09-03T21:52:31.182Z,4.30
2017-09-03T21:55:02.228Z,5.30
2017-09-03T21:57:34.004Z,5.40
2017-09-03T22:00:06.008Z,5.87
2017-09-03T22:02:36.747Z,5.27
2017-09-03T22:05:07.679Z,5.50
2017-09-03T22:07:38.240Z,5.10
2017-09-03T22:10:08.959Z,4.97
2017-09-03T22:15:14.552Z,5.10
2017-09-03T22:17:45.666Z,5.90
2017-09-03T22:20:16.230Z,5.87
2017-09-03T22:22:46.805Z,5.00
2017-09-03T22:25:18.294Z,4.47
2017-09-03T22:27:48.884Z,3.93
2017-09-03T22:30:20.664Z,4.80
2017-09-03T22:32:51.221Z,4.67
2017-09-03T22:35:22.137Z,5.20
2017-09-03T22:40:30.106Z,4.90
2017-09-03T22:43:00.725Z,5.20
2017-09-03T22:45:31.343Z,5.27
2017-09-03T22:48:02.262Z,4.30
2017-09-03T22:50:32.860Z,4.90
2017-09-03T22:53:03.414Z,4.87
2017-09-03T22:55:33.965Z,5.10
2017-09-03T22:58:04.571Z,5.60
2017-09-03T23:00:35.517Z,5.50
2017-09-03T23:03:06.041Z,5.13
2017-09-03T23:05:37.006Z,5.23
2017-09-03T23:08:07.555Z,5.23
2017-09-03T23:10:38.118Z,4.80
2017-09-03T23:13:09.725Z,5.30
2017-09-03T23:15:40.287Z,5.80
2017-09-03T23:18:10.821Z,5.57
2017-09-03T23:20:41.411Z,6.07
2017-09-03T23:23:11.984Z,6.17
2017-09-03T23:25:42.654Z,5.20
2017-09-03T23:28:13.216Z,5.40
2017-09-03T23:30:43.767Z,5.17
2017-09-03T23:33:14.350Z,6.60
2017-09-03T23:35:45.552Z,6.20
2017-09-03T23:38:16.123Z,6.20
2017-09-03T23:40:46.702Z,5.80
2017-09-03T23:43:18.126Z,6.50
2017-09-03T23:45:48.593Z,5.63
2017-09-03T23:48:19.562Z,5.23
2017-09-03T23:50:50.125Z,5.93
2017-09-03T23:53:22.202Z,5.23
2017-09-03T23:55:52.738Z,5.50
2017-09-03T23:58:23.345Z,5.73
